Time;durP1;ratioP1;P1;durP2;ratioP2;P2;SDS_P1;SDS_P2;PMS_P1;PMS_P2;Temp;Humidity;BMP_temperature;BMP_pressure;BME280_temperature;BME280_humidity;BME280_pressure;Samples;Min_cycle;Max_cycle;Signal;HPM_P1;HPM_P2
2022/11/04 00:01:15;;;;;;;0.75;0.35;;;11.20;99.90;;;;;;4968160;28;20125;-77
2022/11/04 00:03:41;;;;;;;0.43;0.30;;;11.20;99.90;;;;;;4967645;28;20145;-77
2022/11/04 00:06:07;;;;;;;0.63;0.22;;;11.20;99.90;;;;;;4966027;28;20034;-77
2022/11/04 00:08:33;;;;;;;2.42;0.63;;;11.20;99.90;;;;;;4967339;28;20042;-77
2022/11/04 00:13:44;;;;;;;1.17;0.65;;;11.20;99.90;;;;;;4967013;28;20133;-77
2022/11/04 00:18:54;;;;;;;4.15;0.65;;;11.10;99.90;;;;;;4966507;28;20059;-76
2022/11/04 00:29:34;;;;;;;0.57;0.20;;;11.00;99.90;;;;;;4967091;28;20062;-77
2022/11/04 00:34:43;;;;;;;0.50;0.38;;;11.00;99.90;;;;;;4966235;28;20109;-77
2022/11/04 00:37:09;;;;;;;7.82;0.82;;;10.90;99.90;;;;;;4966441;28;20058;-77
2022/11/04 00:39:35;;;;;;;1.67;0.65;;;10.90;99.90;;;;;;4966768;28;20043;-77
2022/11/04 00:42:00;;;;;;;0.50;0.45;;;10.90;99.90;;;;;;4966643;28;20043;-77
2022/11/04 00:44:26;;;;;;;1.38;0.80;;;10.90;99.90;;;;;;4965545;28;20053;-77
2022/11/04 00:46:51;;;;;;;1.30;0.98;;;10.90;99.90;;;;;;4966616;28;20047;-76
2022/11/04 00:49:17;;;;;;;2.67;0.80;;;10.90;99.90;;;;;;4965043;28;20060;-77
2022/11/04 00:51:42;;;;;;;1.95;0.90;;;10.90;99.90;;;;;;4966097;28;20098;-77
2022/11/04 00:54:08;;;;;;;1.40;1.00;;;10.90;99.90;;;;;;4964714;28;20045;-76
2022/11/04 00:56:36;;;;;;;1.42;0.80;;;10.90;99.90;;;;;;4965244;28;20504;-77
2022/11/04 00:59:02;;;;;;;2.50;1.05;;;10.90;99.90;;;;;;4965713;28;20078;-77
2022/11/04 01:01:28;;;;;;;3.25;0.75;;;10.90;99.90;;;;;;4966541;28;20055;-76
2022/11/04 01:03:54;;;;;;;2.42;0.68;;;10.90;99.90;;;;;;4966155;28;20058;-76
2022/11/04 01:06:21;;;;;;;3.95;1.23;;;10.90;99.90;;;;;;4965743;28;20069;-78
2022/11/04 01:08:47;;;;;;;3.83;0.95;;;10.90;99.90;;;;;;4966530;28;20382;-77
2022/11/04 01:11:14;;;;;;;3.28;0.75;;;10.90;99.90;;;;;;4966136;28;20513;-77
2022/11/04 01:13:40;;;;;;;2.10;0.82;;;10.90;99.90;;;;;;4966100;28;20263;-78
2022/11/04 01:16:08;;;;;;;10.63;1.08;;;10.90;99.90;;;;;;4964774;28;20394;-77
2022/11/04 01:18:34;;;;;;;1.35;0.73;;;11.00;99.90;;;;;;4966340;28;20421;-77
2022/11/04 01:21:05;;;;;;;5.18;0.77;;;11.00;99.90;;;;;;4964769;28;20056;-77
2022/11/04 01:23:31;;;;;;;4.50;0.88;;;10.90;99.90;;;;;;4964896;28;20485;-77
2022/11/04 01:25:56;;;;;;;2.15;1.02;;;10.90;99.90;;;;;;4964518;28;20059;-77
2022/11/04 01:28:22;;;;;;;1.75;0.88;;;10.90;99.90;;;;;;4966378;28;20121;-78
2022/11/04 01:30:47;;;;;;;1.30;0.55;;;11.00;99.90;;;;;;4965415;28;20043;-77
2022/11/04 01:33:13;;;;;;;2.53;0.75;;;11.00;99.90;;;;;;4965866;28;20413;-77
2022/11/04 01:35:39;;;;;;;1.95;0.45;;;10.90;99.90;;;;;;4963781;28;20073;-76
2022/11/04 01:38:04;;;;;;;0.98;0.63;;;11.00;99.90;;;;;;4965301;28;20053;-77
2022/11/04 01:40:35;;;;;;;3.65;1.02;;;10.90;99.90;;;;;;4964324;28;20050;-76
2022/11/04 01:43:01;;;;;;;1.65;0.70;;;10.90;99.90;;;;;;4980549;28;20537;-77
2022/11/04 01:45:26;;;;;;;2.45;0.88;;;11.00;99.90;;;;;;4965904;28;20078;-77
2022/11/04 01:48:03;;;;;;;1.27;1.00;;;10.90;99.90;;;;;;4965358;28;20526;-78
2022/11/04 01:50:31;;;;;;;5.82;1.83;;;11.00;99.90;;;;;;4965036;28;20289;-78
2022/11/04 01:53:10;;;;;;;3.00;0.80;;;10.90;99.90;;;;;;4965310;28;20471;-77
2022/11/04 01:55:46;;;;;;;1.27;0.80;;;10.90;99.90;;;;;;4965789;28;20051;-77
2022/11/04 01:58:16;;;;;;;5.43;1.33;;;10.90;99.90;;;;;;4965584;28;20054;-77
2022/11/04 02:00:43;;;;;;;3.78;1.05;;;10.90;99.90;;;;;;4965763;28;20681;-77
2022/11/04 02:03:20;;;;;;;9.05;1.85;;;10.90;99.90;;;;;;4965537;28;20042;-77
2022/11/04 02:05:47;;;;;;;2.33;1.10;;;10.90;99.90;;;;;;5045248;23;20464;-74
2022/11/04 02:08:15;;;;;;;1.38;0.93;;;10.90;99.90;;;;;;4965239;28;20047;-74
2022/11/04 02:10:51;;;;;;;3.05;1.00;;;10.90;99.90;;;;;;4968404;28;20082;-74
2022/11/04 02:13:17;;;;;;;3.90;1.67;;;11.00;99.90;;;;;;4970037;28;20049;-75
2022/11/04 02:15:58;;;;;;;1.02;0.73;;;10.90;99.90;;;;;;4969671;28;20559;-74
2022/11/04 02:18:30;;;;;;;1.05;0.60;;;11.00;99.90;;;;;;4967964;28;20129;-74
2022/11/04 02:21:04;;;;;;;1.08;0.70;;;10.90;99.90;;;;;;4968154;28;20537;-74
2022/11/04 02:23:49;;;;;;;3.03;1.02;;;10.90;99.90;;;;;;4967958;28;20139;-74
2022/11/04 02:26:33;;;;;;;2.63;0.93;;;10.90;99.90;;;;;;4963092;28;20053;-74
2022/11/04 02:29:05;;;;;;;4.10;0.73;;;10.90;99.90;;;;;;4968001;28;20054;-73
2022/11/04 02:31:50;;;;;;;0.77;0.45;;;10.90;99.90;;;;;;4968115;28;20043;-74
2022/11/04 02:34:55;;;;;;;3.00;0.95;;;10.90;99.90;;;;;;4967538;28;20055;-74
2022/11/04 02:37:37;;;;;;;3.08;0.85;;;10.80;99.90;;;;;;4978740;28;20054;-74
2022/11/04 02:40:28;;;;;;;1.02;0.70;;;10.80;99.90;;;;;;4968879;28;20057;-74
2022/11/04 02:42:57;;;;;;;1.42;0.47;;;10.80;99.90;;;;;;4972989;28;20049;-74
2022/11/04 02:45:34;;;;;;;3.72;1.13;;;10.80;99.90;;;;;;4988433;28;20057;-74
2022/11/04 02:48:20;;;;;;;1.38;0.90;;;10.80;99.90;;;;;;4987059;28;20092;-74
2022/11/04 02:51:02;;;;;;;1.60;0.80;;;10.80;99.90;;;;;;4986448;28;20052;-74
2022/11/04 02:54:06;;;;;;;14.10;1.30;;;10.80;99.90;;;;;;4988220;28;20449;-74
2022/11/04 02:56:34;;;;;;;2.28;0.75;;;10.80;99.90;;;;;;5001294;28;20093;-74
2022/11/04 02:59:06;;;;;;;1.02;0.50;;;10.70;99.90;;;;;;4988150;28;20130;-74
2022/11/04 03:01:36;;;;;;;4.55;1.58;;;10.70;99.90;;;;;;4988347;28;20042;-73
2022/11/04 03:04:14;;;;;;;6.85;1.48;;;10.70;99.90;;;;;;4986849;28;20046;-74
2022/11/04 03:06:43;;;;;;;2.42;1.48;;;10.70;99.90;;;;;;4949126;28;20110;-74
2022/11/04 03:09:12;;;;;;;1.27;0.93;;;10.80;99.90;;;;;;4949045;28;20557;-73
2022/11/04 03:11:42;;;;;;;1.92;1.02;;;10.70;99.90;;;;;;4948044;29;20121;-74
2022/11/04 03:14:27;;;;;;;1.10;0.95;;;10.70;99.90;;;;;;4949252;28;20138;-74
2022/11/04 03:16:59;;;;;;;2.28;1.08;;;10.70;99.90;;;;;;4949021;29;20490;-74
2022/11/04 03:19:46;;;;;;;2.35;1.50;;;10.70;99.90;;;;;;4948336;28;20497;-74
2022/11/04 03:22:24;;;;;;;5.10;1.75;;;10.70;99.90;;;;;;4948590;28;20057;-74
2022/11/04 03:24:50;;;;;;;2.33;1.00;;;10.60;99.90;;;;;;4956690;28;20058;-74
2022/11/04 03:27:34;;;;;;;2.47;1.35;;;10.60;99.90;;;;;;4967767;28;20053;-74
2022/11/04 03:30:10;;;;;;;1.95;0.73;;;10.60;99.90;;;;;;4966747;28;20482;-74
2022/11/04 03:32:46;;;;;;;2.47;0.77;;;10.60;99.90;;;;;;4966966;28;20046;-74
2022/11/04 03:35:13;;;;;;;6.15;0.88;;;10.60;99.90;;;;;;4966820;28;20054;-74
2022/11/04 03:37:39;;;;;;;0.70;0.43;;;10.60;99.90;;;;;;4968233;28;20034;-74
2022/11/04 03:40:05;;;;;;;0.88;0.63;;;10.50;99.90;;;;;;4968016;28;20035;-74
2022/11/04 03:42:35;;;;;;;0.75;0.70;;;10.50;99.90;;;;;;4968011;28;20054;-74
2022/11/04 03:45:01;;;;;;;3.42;1.02;;;10.50;99.90;;;;;;4967734;28;20053;-74
2022/11/04 03:47:28;;;;;;;1.45;0.50;;;10.50;99.90;;;;;;4966941;28;20046;-75
2022/11/04 03:50:05;;;;;;;3.58;0.70;;;10.50;99.90;;;;;;4966309;28;20043;-75
2022/11/04 03:52:31;;;;;;;1.08;0.25;;;10.40;99.90;;;;;;4968939;28;20058;-75
2022/11/04 03:54:57;;;;;;;3.70;0.50;;;10.40;99.90;;;;;;4986624;28;20026;-74
2022/11/04 03:57:44;;;;;;;1.48;0.50;;;10.40;99.90;;;;;;4986020;28;20046;-74
2022/11/04 04:00:19;;;;;;;4.22;1.00;;;10.40;99.90;;;;;;4985217;28;20138;-74
2022/11/04 04:02:57;;;;;;;2.22;0.73;;;10.30;99.90;;;;;;4972506;28;20051;-75
2022/11/04 04:05:28;;;;;;;1.15;0.30;;;10.30;99.90;;;;;;4965194;28;20066;-75
2022/11/04 04:08:14;;;;;;;1.13;0.40;;;10.30;99.90;;;;;;4967486;28;20042;-74
2022/11/04 04:10:43;;;;;;;0.98;0.50;;;10.30;99.90;;;;;;4967604;28;20101;-75
2022/11/04 04:13:38;;;;;;;3.05;0.50;;;10.30;99.90;;;;;;4967315;28;20496;-74
2022/11/04 04:16:14;;;;;;;4.10;0.93;;;10.20;99.90;;;;;;4967210;28;20102;-74
2022/11/04 04:19:09;;;;;;;1.17;0.43;;;10.20;99.90;;;;;;4965002;28;20051;-74
2022/11/04 04:21:43;;;;;;;5.45;0.80;;;10.30;99.90;;;;;;4965232;28;20082;-73
2022/11/04 04:29:43;;;;;;;1.85;0.90;;;10.30;99.90;;;;;;4967234;28;20469;-74
2022/11/04 04:32:09;;;;;;;3.17;0.90;;;10.30;99.90;;;;;;4965732;28;20131;-74
2022/11/04 04:34:36;;;;;;;3.40;0.80;;;10.30;99.90;;;;;;4965265;28;20456;-74
2022/11/04 04:37:11;;;;;;;0.77;0.32;;;10.30;99.90;;;;;;4967073;28;20046;-74
2022/11/04 04:45:38;;;;;;;1.10;0.38;;;10.30;99.90;;;;;;4966969;28;20050;-74
2022/11/04 04:48:12;;;;;;;1.25;0.65;;;10.30;99.90;;;;;;4966209;28;20090;-74
2022/11/04 04:50:43;;;;;;;1.88;1.02;;;10.30;99.90;;;;;;4966401;28;20061;-74
2022/11/04 04:53:08;;;;;;;2.33;1.60;;;10.30;99.90;;;;;;4965201;28;20042;-74
2022/11/04 04:55:41;;;;;;;0.63;0.55;;;10.30;99.90;;;;;;5065401;27;20986;-75
2022/11/04 04:58:07;;;;;;;1.75;1.10;;;10.30;99.90;;;;;;5060347;28;20041;-76
2022/11/04 05:00:33;;;;;;;1.15;0.40;;;10.30;99.90;;;;;;5061873;28;20076;-75
2022/11/04 05:02:58;;;;;;;1.20;0.40;;;10.30;99.90;;;;;;5062020;28;20531;-75
2022/11/04 05:05:24;;;;;;;1.10;0.63;;;10.30;99.90;;;;;;5059795;28;20053;-75
2022/11/04 05:07:50;;;;;;;2.85;1.05;;;10.30;99.90;;;;;;5061699;28;20043;-75
2022/11/04 05:10:16;;;;;;;0.65;0.50;;;10.20;99.90;;;;;;5062129;28;20041;-75
2022/11/04 05:15:28;;;;;;;0.43;0.32;;;10.30;99.90;;;;;;5061449;28;20093;-75
2022/11/04 05:17:58;;;;;;;0.65;0.40;;;10.20;99.90;;;;;;5061288;28;20040;-74
2022/11/04 05:20:24;;;;;;;0.85;0.35;;;10.20;99.90;;;;;;5060630;28;20118;-75
2022/11/04 05:22:50;;;;;;;1.45;0.82;;;10.20;99.90;;;;;;5059801;28;20036;-75
2022/11/04 05:25:16;;;;;;;1.77;0.50;;;10.20;99.90;;;;;;5061593;28;20043;-75
2022/11/04 05:27:42;;;;;;;0.73;0.50;;;10.20;99.90;;;;;;5059981;28;20677;-75
2022/11/04 05:30:07;;;;;;;1.08;0.68;;;10.10;99.90;;;;;;5059973;28;20044;-76
2022/11/04 05:32:33;;;;;;;0.90;0.45;;;10.10;99.90;;;;;;5060147;28;20072;-75
2022/11/04 05:34:59;;;;;;;0.40;0.40;;;10.20;99.90;;;;;;5059829;28;20094;-76
2022/11/04 05:37:24;;;;;;;1.52;1.02;;;10.10;99.90;;;;;;5061212;28;20092;-75
2022/11/04 05:39:50;;;;;;;1.95;0.73;;;10.10;99.90;;;;;;5057445;28;20032;-76
2022/11/04 05:42:16;;;;;;;0.75;0.75;;;10.10;99.90;;;;;;5058246;28;20045;-76
2022/11/04 05:44:42;;;;;;;0.60;0.60;;;10.10;99.90;;;;;;5061128;28;20044;-75
2022/11/04 05:47:07;;;;;;;1.65;0.60;;;10.10;99.90;;;;;;5060892;28;20450;-75
2022/11/04 05:49:33;;;;;;;1.50;0.35;;;10.00;99.90;;;;;;5060237;28;20122;-75
2022/11/04 05:51:59;;;;;;;3.03;0.70;;;10.00;99.90;;;;;;5060798;28;20044;-75
2022/11/04 05:54:25;;;;;;;4.00;1.02;;;10.10;99.90;;;;;;5060085;28;20571;-75
2022/11/04 05:56:51;;;;;;;3.03;0.50;;;10.10;99.90;;;;;;5060445;28;20037;-75
2022/11/04 05:59:17;;;;;;;1.42;0.70;;;10.10;99.90;;;;;;5060128;28;20474;-75
2022/11/04 06:01:43;;;;;;;1.35;0.88;;;10.00;99.90;;;;;;5060488;28;20052;-75
2022/11/04 06:04:17;;;;;;;2.17;1.33;;;10.10;99.90;;;;;;5057746;28;20095;-76
2022/11/04 06:06:43;;;;;;;1.38;0.75;;;10.00;99.90;;;;;;5048108;28;20048;-78
2022/11/04 06:09:09;;;;;;;3.83;0.98;;;10.00;99.90;;;;;;5046553;28;20127;-75
2022/11/04 06:11:36;;;;;;;2.38;0.55;;;10.00;99.90;;;;;;5046150;28;20215;-75
2022/11/04 06:14:02;;;;;;;0.90;0.60;;;10.00;99.90;;;;;;5046979;28;20132;-75
2022/11/04 06:16:27;;;;;;;0.60;0.40;;;9.90;99.90;;;;;;5047622;28;20136;-74
2022/11/04 06:18:53;;;;;;;1.85;1.17;;;9.90;99.90;;;;;;5046361;28;20088;-74
2022/11/04 06:21:29;;;;;;;5.15;1.50;;;9.90;99.90;;;;;;5047312;28;20048;-75
2022/11/04 06:23:57;;;;;;;2.15;1.05;;;9.90;99.90;;;;;;5046194;28;20052;-75
2022/11/04 06:26:24;;;;;;;1.10;0.50;;;9.90;99.90;;;;;;5046894;28;20454;-74
2022/11/04 06:28:50;;;;;;;1.27;0.70;;;9.80;99.90;;;;;;5046995;28;20049;-76
2022/11/04 06:31:16;;;;;;;0.85;0.50;;;9.80;99.90;;;;;;5045712;28;20052;-75
2022/11/04 06:33:42;;;;;;;1.10;0.70;;;9.80;99.90;;;;;;5061214;28;20625;-75
2022/11/04 06:36:11;;;;;;;0.98;0.57;;;9.80;99.90;;;;;;5046826;28;20049;-75
2022/11/04 06:38:37;;;;;;;3.15;1.38;;;9.80;99.90;;;;;;5045457;28;20041;-75
2022/11/04 06:41:05;;;;;;;1.50;0.70;;;9.70;99.90;;;;;;5047226;28;20049;-75
2022/11/04 06:43:30;;;;;;;0.85;0.70;;;9.70;99.90;;;;;;5046569;28;20079;-76
2022/11/04 06:45:57;;;;;;;1.65;0.57;;;9.60;99.90;;;;;;5044610;28;20134;-75
2022/11/04 06:48:23;;;;;;;5.22;1.27;;;9.60;99.90;;;;;;5044481;28;20120;-76
2022/11/04 06:50:49;;;;;;;2.30;0.98;;;9.60;99.90;;;;;;5046286;28;20164;-75
2022/11/04 06:53:15;;;;;;;1.23;0.73;;;9.50;99.90;;;;;;5044888;28;21025;-77
2022/11/04 06:55:41;;;;;;;2.20;0.80;;;9.50;99.90;;;;;;5042490;28;20072;-78
2022/11/04 06:58:07;;;;;;;2.83;1.13;;;9.40;99.90;;;;;;5043565;28;20033;-77
2022/11/04 07:00:32;;;;;;;3.30;1.00;;;9.40;99.90;;;;;;5046100;28;20259;-80
2022/11/04 07:02:58;;;;;;;2.33;1.15;;;9.40;99.90;;;;;;5055212;28;20601;-81
2022/11/04 07:05:23;;;;;;;1.40;1.02;;;9.40;99.90;;;;;;5044215;28;20048;-79
2022/11/04 07:07:49;;;;;;;7.68;1.10;;;9.40;99.90;;;;;;5045037;28;20584;-78
2022/11/04 07:10:16;;;;;;;4.03;1.52;;;9.40;99.90;;;;;;5056422;28;20391;-76
2022/11/04 07:12:42;;;;;;;1.45;0.95;;;9.40;99.90;;;;;;5045702;28;20049;-77
2022/11/04 07:15:08;;;;;;;3.15;1.17;;;9.30;99.90;;;;;;5045423;28;20053;-77
2022/11/04 07:17:34;;;;;;;2.05;0.77;;;9.30;99.90;;;;;;5043883;28;20078;-78
2022/11/04 07:19:59;;;;;;;2.55;0.70;;;9.30;99.90;;;;;;5044054;28;20134;-79
2022/11/04 07:22:25;;;;;;;0.60;0.50;;;9.30;99.90;;;;;;5046339;28;20048;-79
2022/11/04 07:24:50;;;;;;;0.82;0.57;;;9.30;99.90;;;;;;5045831;28;20048;-79
2022/11/04 07:27:16;;;;;;;2.13;1.25;;;9.30;99.90;;;;;;5045330;28;20596;-79
2022/11/04 07:29:41;;;;;;;6.03;1.88;;;9.30;99.90;;;;;;5045091;28;20052;-78
2022/11/04 07:32:07;;;;;;;1.30;0.80;;;9.30;99.90;;;;;;5046595;28;20055;-76
2022/11/04 07:34:32;;;;;;;0.75;0.68;;;9.30;99.90;;;;;;5036469;28;20518;-75
2022/11/04 07:36:58;;;;;;;2.78;0.90;;;9.30;99.90;;;;;;5059967;28;20094;-76
2022/11/04 07:39:24;;;;;;;0.95;0.85;;;9.30;99.90;;;;;;5026776;28;20060;-76
2022/11/04 07:41:49;;;;;;;6.32;1.13;;;9.30;99.90;;;;;;5044908;28;20434;-78
2022/11/04 07:44:15;;;;;;;1.73;0.98;;;9.30;99.90;;;;;;5045184;28;20536;-76
2022/11/04 07:46:40;;;;;;;2.58;0.82;;;9.30;99.90;;;;;;5044694;28;20099;-76
2022/11/04 07:49:06;;;;;;;6.55;1.02;;;9.30;99.90;;;;;;5043570;28;20048;-75
2022/11/04 07:51:33;;;;;;;1.33;0.70;;;9.20;99.90;;;;;;5044242;28;20546;-75
2022/11/04 07:53:59;;;;;;;1.13;0.82;;;9.30;99.90;;;;;;5043200;28;20940;-75
2022/11/04 07:56:25;;;;;;;2.25;0.95;;;9.30;99.90;;;;;;5043536;28;20482;-75
2022/11/04 07:58:51;;;;;;;2.00;1.02;;;9.30;99.90;;;;;;5044241;28;20042;-75
2022/11/04 08:01:20;;;;;;;0.82;0.82;;;9.30;99.90;;;;;;5043852;28;20045;-75
2022/11/04 08:03:45;;;;;;;8.52;1.30;;;9.30;99.90;;;;;;5042606;28;20359;-75
2022/11/04 08:06:13;;;;;;;0.57;0.57;;;9.40;99.90;;;;;;5043120;28;20031;-75
2022/11/04 08:08:40;;;;;;;1.55;1.00;;;9.40;99.90;;;;;;5044226;28;20045;-75
2022/11/04 08:11:12;;;;;;;3.80;1.25;;;9.40;99.90;;;;;;5043940;28;20060;-75
2022/11/04 08:13:38;;;;;;;2.40;1.50;;;9.40;99.90;;;;;;5041293;28;20506;-75
2022/11/04 08:16:08;;;;;;;1.83;1.05;;;9.40;99.90;;;;;;5042902;28;20120;-75
2022/11/04 08:18:34;;;;;;;1.05;0.77;;;9.40;99.90;;;;;;5041661;28;20502;-75
2022/11/04 08:21:01;;;;;;;1.42;0.98;;;9.50;99.90;;;;;;5041933;28;20040;-74
2022/11/04 08:23:27;;;;;;;1.30;1.20;;;9.50;99.90;;;;;;5044448;28;20052;-77
2022/11/04 08:25:53;;;;;;;1.58;0.80;;;9.50;99.90;;;;;;5044661;28;20534;-76
2022/11/04 08:28:19;;;;;;;0.80;0.80;;;9.60;99.90;;;;;;5044554;28;20037;-75
2022/11/04 08:31:01;;;;;;;2.17;1.40;;;9.70;99.90;;;;;;5045218;28;20446;-76
2022/11/04 08:33:28;;;;;;;;;;;9.70;99.90;;;;;;5043512;28;20048;-75
2022/11/04 08:35:55;;;;;;;2.50;0.88;;;9.80;99.90;;;;;;5044767;28;20023;-76
2022/11/04 08:38:20;;;;;;;1.02;0.93;;;9.90;99.90;;;;;;5043647;28;20049;-76
2022/11/04 08:40:46;;;;;;;3.22;1.30;;;9.90;99.90;;;;;;5039896;28;20044;-76
2022/11/04 08:43:12;;;;;;;2.60;1.95;;;9.90;99.90;;;;;;5042390;28;20072;-76
2022/11/04 08:45:44;;;;;;;9.23;1.90;;;10.00;99.90;;;;;;5043791;28;20751;-76
2022/11/04 08:48:10;;;;;;;3.10;1.35;;;10.00;99.90;;;;;;5041785;28;20049;-75
2022/11/04 08:50:36;;;;;;;2.75;1.50;;;10.00;99.90;;;;;;5044135;28;20037;-75
2022/11/04 08:53:03;;;;;;;2.92;1.50;;;10.00;99.90;;;;;;5043662;28;20119;-76
2022/11/04 08:55:29;;;;;;;3.22;0.77;;;10.00;99.90;;;;;;5042580;28;20439;-76
2022/11/04 08:57:55;;;;;;;1.40;0.98;;;10.10;99.90;;;;;;5043821;28;20052;-75
2022/11/04 09:00:20;;;;;;;1.20;1.08;;;10.10;99.90;;;;;;5043964;28;20040;-75
2022/11/04 09:02:46;;;;;;;4.50;1.40;;;10.10;99.90;;;;;;5042369;28;20043;-76
2022/11/04 09:05:13;;;;;;;2.00;1.00;;;10.10;99.90;;;;;;5043912;28;20083;-75
2022/11/04 09:07:39;;;;;;;1.92;1.15;;;10.10;99.90;;;;;;5043981;28;20045;-76
2022/11/04 09:10:06;;;;;;;3.00;1.00;;;10.20;99.90;;;;;;5043217;28;20124;-75
2022/11/04 09:12:32;;;;;;;1.92;1.10;;;10.20;99.90;;;;;;5042762;28;20057;-76
2022/11/04 09:14:57;;;;;;;3.00;1.17;;;10.20;99.90;;;;;;5041718;28;20068;-75
2022/11/04 09:17:24;;;;;;;5.68;1.60;;;10.30;99.90;;;;;;5042459;28;20461;-75
2022/11/04 09:19:49;;;;;;;1.08;1.05;;;10.30;99.90;;;;;;5042212;28;20589;-77
2022/11/04 09:22:15;;;;;;;3.22;1.48;;;10.40;99.90;;;;;;5044663;28;20080;-75
2022/11/04 09:24:41;;;;;;;2.58;0.70;;;10.40;99.90;;;;;;5044320;28;20094;-75
2022/11/04 09:27:06;;;;;;;2.25;1.08;;;10.50;99.90;;;;;;5043026;28;20033;-75
2022/11/04 09:29:32;;;;;;;5.78;1.40;;;10.50;99.90;;;;;;5044193;28;20052;-75
2022/11/04 09:31:59;;;;;;;2.13;0.93;;;10.60;99.90;;;;;;5043771;28;20422;-75
2022/11/04 09:34:25;;;;;;;2.45;1.10;;;10.70;99.90;;;;;;5041617;28;20045;-75
2022/11/04 09:36:54;;;;;;;2.10;1.35;;;10.70;99.90;;;;;;5043555;28;20044;-75
2022/11/04 09:39:22;;;;;;;3.15;1.02;;;10.80;99.90;;;;;;5042520;28;20108;-75
2022/11/04 09:42:14;;;;;;;3.33;1.98;;;10.90;99.90;;;;;;5047063;28;20037;-75
2022/11/04 09:44:40;;;;;;;;;;;10.90;99.90;;;;;;5046861;28;20053;-75
2022/11/04 09:47:10;;;;;;;2.33;1.00;;;11.00;99.90;;;;;;5047587;28;19921;-75
2022/11/04 09:49:39;;;;;;;4.93;1.30;;;11.10;99.90;;;;;;5046295;28;20060;-75
2022/11/04 09:52:17;;;;;;;6.60;0.95;;;11.10;99.90;;;;;;5046850;28;20045;-75
2022/11/04 09:54:59;;;;;;;4.60;1.23;;;11.10;99.90;;;;;;5047603;28;20053;-75
2022/11/04 09:57:25;;;;;;;0.85;0.60;;;10.90;99.90;;;;;;5043804;28;20558;-76
2022/11/04 09:59:51;;;;;;;1.13;0.80;;;10.70;99.90;;;;;;5027784;28;20037;-76
2022/11/04 10:02:23;;;;;;;1.63;1.17;;;10.60;99.90;;;;;;5029024;28;20414;-75
2022/11/04 10:05:23;;;;;;;1.48;1.08;;;10.50;99.90;;;;;;5045560;28;20049;-75
2022/11/04 10:08:18;;;;;;;8.32;1.45;;;10.40;99.90;;;;;;5046086;28;20044;-75
2022/11/04 10:11:04;;;;;;;3.10;0.93;;;10.40;99.90;;;;;;5043112;28;20055;-76
2022/11/04 10:13:32;;;;;;;2.25;0.80;;;10.40;99.90;;;;;;5045523;28;20053;-75
2022/11/04 10:16:17;;;;;;;9.07;2.35;;;10.40;99.90;;;;;;5046796;28;20041;-75
2022/11/04 10:19:00;;;;;;;2.15;0.77;;;10.40;99.90;;;;;;5045095;28;20410;-76
2022/11/04 10:22:11;;;;;;;4.90;0.80;;;10.40;99.90;;;;;;5047381;28;20041;-76
2022/11/04 10:24:49;;;;;;;2.50;1.33;;;10.40;99.90;;;;;;5040035;28;20057;-75
2022/11/04 10:27:18;;;;;;;2.70;1.17;;;10.40;99.90;;;;;;5040461;28;20083;-76
2022/11/04 10:30:00;;;;;;;4.10;1.40;;;10.40;99.90;;;;;;5046684;28;20108;-76
2022/11/04 10:32:48;;;;;;;5.10;1.52;;;10.40;99.90;;;;;;5043161;28;20510;-76
2022/11/04 10:35:26;;;;;;;6.18;1.05;;;10.50;99.90;;;;;;5044053;28;20041;-77
2022/11/04 10:37:53;;;;;;;2.13;1.10;;;10.50;99.90;;;;;;5044287;28;20132;-76
2022/11/04 10:40:35;;;;;;;6.55;1.38;;;10.50;99.90;;;;;;5045795;28;20395;-76
2022/11/04 10:43:06;;;;;;;3.80;1.48;;;10.50;99.90;;;;;;5044230;28;20048;-77
2022/11/04 10:45:54;;;;;;;3.17;1.13;;;10.50;99.90;;;;;;5045184;28;20033;-76
2022/11/04 10:48:27;;;;;;;2.97;1.38;;;10.50;99.90;;;;;;5044300;28;20410;-77
2022/11/04 10:50:55;;;;;;;3.55;1.17;;;10.60;99.90;;;;;;5055895;28;20049;-77
2022/11/04 10:53:30;;;;;;;5.05;1.48;;;10.60;99.90;;;;;;5042254;28;20041;-76
2022/11/04 10:56:11;;;;;;;3.60;1.33;;;10.70;99.90;;;;;;5044781;28;20057;-78
2022/11/04 10:58:43;;;;;;;3.03;1.33;;;10.70;99.90;;;;;;5043862;28;20091;-77
2022/11/04 11:01:35;;;;;;;2.30;0.98;;;10.80;99.90;;;;;;5043546;28;20478;-77
2022/11/04 11:04:05;;;;;;;5.43;2.08;;;10.90;99.90;;;;;;5040948;28;20057;-77
2022/11/04 11:06:33;;;;;;;8.25;2.08;;;10.90;99.90;;;;;;5044629;28;20052;-77
2022/11/04 11:09:18;;;;;;;2.42;1.00;;;11.00;99.90;;;;;;5043592;28;20067;-76
2022/11/04 11:11:47;;;;;;;2.28;1.63;;;11.10;99.90;;;;;;5044947;28;20459;-78
2022/11/04 11:14:17;;;;;;;5.13;2.17;;;11.20;99.90;;;;;;5044578;28;20040;-78
2022/11/04 11:16:44;;;;;;;3.47;1.35;;;11.20;99.90;;;;;;5044548;28;20235;-77
2022/11/04 11:19:16;;;;;;;2.15;1.33;;;11.20;99.90;;;;;;5043823;28;20041;-75
2022/11/04 11:21:54;;;;;;;0.70;0.70;;;11.30;99.90;;;;;;5043392;28;20691;-78
2022/11/04 11:24:20;;;;;;;1.95;1.17;;;11.30;99.90;;;;;;5044954;28;20063;-76
2022/11/04 11:26:49;;;;;;;6.55;1.52;;;11.20;99.90;;;;;;5042844;28;20041;-77
2022/11/04 11:29:27;;;;;;;1.42;1.00;;;11.30;99.90;;;;;;5023197;28;20091;-77
2022/11/04 11:31:54;;;;;;;4.30;1.02;;;11.30;99.90;;;;;;5023174;28;20049;-78
2022/11/04 11:34:27;;;;;;;5.85;1.50;;;11.30;99.90;;;;;;5023532;28;20371;-76
2022/11/04 11:37:02;;;;;;;2.00;1.23;;;11.30;99.90;;;;;;5022642;28;20330;-76
2022/11/04 11:39:29;;;;;;;2.03;0.80;;;11.40;99.90;;;;;;5023308;28;20383;-77
2022/11/04 11:42:11;;;;;;;6.22;1.30;;;11.40;99.90;;;;;;5022807;28;20380;-77
2022/11/04 11:44:46;;;;;;;2.67;1.20;;;11.40;99.90;;;;;;5024125;28;20042;-77
2022/11/04 11:47:20;;;;;;;4.38;1.20;;;11.40;99.90;;;;;;5023862;28;20037;-77
2022/11/04 11:50:30;;;;;;;8.25;1.27;;;11.40;99.90;;;;;;5039676;28;20046;-77
2022/11/04 11:53:16;;;;;;;3.28;0.93;;;11.40;99.90;;;;;;5022682;28;20061;-76
2022/11/04 11:56:09;;;;;;;1.42;1.33;;;11.40;99.90;;;;;;5006069;28;20049;-78
2022/11/04 11:58:48;;;;;;;6.57;1.52;;;11.40;99.90;;;;;;5022523;28;20260;-78
2022/11/04 12:01:23;;;;;;;2.10;0.70;;;11.40;99.90;;;;;;5021955;28;20042;-77
2022/11/04 12:03:49;;;;;;;2.97;1.70;;;11.40;99.90;;;;;;5022786;28;20099;-76
2022/11/04 12:06:30;;;;;;;2.53;1.45;;;11.50;99.90;;;;;;5022468;28;20049;-77
2022/11/04 12:09:22;;;;;;;3.03;1.45;;;11.50;99.90;;;;;;5022170;28;20099;-76
2022/11/04 12:12:06;;;;;;;4.95;1.42;;;11.50;99.90;;;;;;5023935;28;20042;-78
2022/11/04 12:14:41;;;;;;;4.22;1.70;;;11.50;99.90;;;;;;5023898;28;20132;-77
2022/11/04 12:17:23;;;;;;;2.25;1.00;;;11.50;99.90;;;;;;5023383;28;20094;-77
2022/11/04 12:20:22;;;;;;;4.57;1.00;;;11.50;99.90;;;;;;5022540;28;20103;-76
2022/11/04 12:23:03;;;;;;;1.40;1.30;;;11.50;99.90;;;;;;5023662;28;20086;-77
2022/11/04 12:25:41;;;;;;;3.17;1.55;;;11.50;99.90;;;;;;5030147;28;20060;-77
2022/11/04 12:28:25;;;;;;;1.67;1.20;;;11.50;99.90;;;;;;5043021;28;20380;-77
2022/11/04 12:31:16;;;;;;;1.65;1.42;;;11.50;99.90;;;;;;5042865;28;20606;-78
2022/11/04 12:34:03;;;;;;;3.00;1.85;;;11.50;99.90;;;;;;5040980;28;20040;-77
2022/11/04 12:36:52;;;;;;;5.50;1.83;;;11.50;99.90;;;;;;5041896;28;20496;-77
2022/11/04 12:39:42;;;;;;;2.88;1.55;;;11.50;99.90;;;;;;5025781;28;20056;-77
2022/11/04 12:42:35;;;;;;;4.35;1.55;;;11.50;99.90;;;;;;5023555;28;20045;-75
2022/11/04 12:45:10;;;;;;;6.13;2.13;;;11.60;99.90;;;;;;5033453;28;20041;-74
2022/11/04 12:47:39;;;;;;;6.38;2.30;;;11.60;99.90;;;;;;5042257;28;20099;-75
2022/11/04 12:50:48;;;;;;;2.33;1.63;;;11.60;99.90;;;;;;5043274;28;20042;-75
2022/11/04 12:53:55;;;;;;;5.45;2.03;;;11.60;99.90;;;;;;5045737;28;20498;-75
2022/11/04 12:56:28;;;;;;;3.83;1.20;;;11.60;99.90;;;;;;5041639;28;20049;-76
2022/11/04 12:59:18;;;;;;;4.50;1.42;;;11.60;99.90;;;;;;5042367;28;20041;-75
2022/11/04 13:01:53;;;;;;;5.82;1.10;;;11.60;99.90;;;;;;5041723;28;20110;-75
2022/11/04 13:04:31;;;;;;;4.57;1.35;;;11.50;99.90;;;;;;5042442;28;20045;-75
2022/11/04 13:07:28;;;;;;;1.13;0.80;;;11.60;99.90;;;;;;5024659;28;20047;-75
2022/11/04 13:09:58;;;;;;;2.10;0.73;;;11.60;99.90;;;;;;5057885;28;20053;-75
2022/11/04 13:12:30;;;;;;;2.65;1.77;;;11.60;99.90;;;;;;5042050;28;20041;-75
2022/11/04 13:15:00;;;;;;;1.90;1.13;;;11.60;99.90;;;;;;5042720;28;20048;-75
2022/11/04 13:17:31;;;;;;;2.50;1.13;;;11.60;99.90;;;;;;5045659;28;20430;-76
2022/11/04 13:20:05;;;;;;;1.95;1.52;;;11.60;99.90;;;;;;5046624;28;20120;-75
2022/11/04 13:22:36;;;;;;;3.72;1.67;;;11.60;99.90;;;;;;5046709;28;20515;-75
2022/11/04 13:25:42;;;;;;;4.72;1.08;;;11.60;99.90;;;;;;5028437;28;20041;-75
2022/11/04 13:28:12;;;;;;;2.88;1.67;;;11.60;99.90;;;;;;5042864;28;20695;-75
2022/11/04 13:30:49;;;;;;;5.13;0.85;;;11.70;99.90;;;;;;5045864;28;20068;-75
2022/11/04 13:33:20;;;;;;;3.28;1.23;;;11.70;99.90;;;;;;5025177;28;20538;-75
2022/11/04 13:36:11;;;;;;;3.00;1.02;;;11.60;99.90;;;;;;5027024;28;20049;-75
2022/11/04 13:38:49;;;;;;;3.40;1.52;;;11.60;99.90;;;;;;5044917;28;20236;-75
2022/11/04 13:41:37;;;;;;;12.57;2.08;;;11.60;99.90;;;;;;5046885;28;20567;-75
2022/11/04 13:44:12;;;;;;;2.50;1.08;;;11.60;99.90;;;;;;5045835;28;20033;-75
2022/11/04 13:46:37;;;;;;;3.72;1.58;;;11.60;99.90;;;;;;5046796;28;20041;-75